createdAt,value
2023-03-24T00:01:56.212Z,13.98
2023-03-24T00:04:25.073Z,12.77
2023-03-24T00:06:54.062Z,12.05
2023-03-24T00:09:20.751Z,12.80
2023-03-24T00:11:47.953Z,11.48
2023-03-24T00:14:14.817Z,12.00
2023-03-24T00:16:45.596Z,14.20
2023-03-24T00:19:16.079Z,12.43
2023-03-24T00:21:44.186Z,14.02
2023-03-24T00:24:12.800Z,13.35
2023-03-24T00:26:41.378Z,12.25
2023-03-24T00:29:11.313Z,12.95
2023-03-24T00:31:41.509Z,11.93
2023-03-24T00:34:09.392Z,12.80
2023-03-24T00:36:37.209Z,11.52
2023-03-24T00:39:06.524Z,11.38
2023-03-24T00:41:33.616Z,11.80
2023-03-24T00:44:03.778Z,11.00
2023-03-24T00:46:31.062Z,12.60
2023-03-24T00:49:07.637Z,12.27
2023-03-24T00:51:40.398Z,11.80
2023-03-24T00:54:09.684Z,11.88
2023-03-24T00:56:40.853Z,13.82
2023-03-24T00:59:09.946Z,12.17
2023-03-24T01:01:39.022Z,12.13
2023-03-24T01:04:06.502Z,11.30
2023-03-24T01:06:36.657Z,13.23
2023-03-24T01:09:05.667Z,12.40
2023-03-24T01:11:38.843Z,11.95
2023-03-24T01:14:06.371Z,12.10
2023-03-24T01:16:33.188Z,12.35
2023-03-24T01:19:00.680Z,12.48
2023-03-24T01:21:27.976Z,11.68
2023-03-24T01:23:54.884Z,10.93
2023-03-24T01:26:21.680Z,10.75
2023-03-24T01:28:48.450Z,11.45
2023-03-24T01:31:15.479Z,11.57
2023-03-24T01:33:42.679Z,11.90
2023-03-24T01:36:09.817Z,11.35
2023-03-24T01:38:36.882Z,10.55
2023-03-24T01:41:05.329Z,11.65
2023-03-24T01:43:34.030Z,13.20
2023-03-24T01:46:08.271Z,11.75
2023-03-24T01:49:02.420Z,11.85
2023-03-24T01:51:42.107Z,12.43
2023-03-24T01:54:25.331Z,11.60
2023-03-24T01:57:04.232Z,11.68
2023-03-24T01:59:34.216Z,11.77
2023-03-24T02:02:04.318Z,13.10
2023-03-24T02:04:38.876Z,11.57
2023-03-24T02:07:33.237Z,11.75
2023-03-24T02:10:03.703Z,11.65
2023-03-24T02:12:32.777Z,11.65
2023-03-24T02:15:00.879Z,11.85
2023-03-24T02:17:57.277Z,12.60
2023-03-24T02:20:54.645Z,13.30
2023-03-24T02:23:42.482Z,12.93
2023-03-24T02:26:24.164Z,12.98
2023-03-24T02:28:59.668Z,13.40
2023-03-24T02:31:45.506Z,12.82
2023-03-24T02:34:12.220Z,13.85
2023-03-24T02:36:48.974Z,13.50
2023-03-24T02:39:38.085Z,14.52
2023-03-24T02:42:28.516Z,13.73
2023-03-24T02:45:43.893Z,13.73
2023-03-24T02:48:32.252Z,14.20
2023-03-24T02:51:14.737Z,13.60
2023-03-24T02:56:24.950Z,12.95
2023-03-24T02:59:06.510Z,14.88
2023-03-24T03:01:38.008Z,14.00
2023-03-24T03:04:12.955Z,13.55
2023-03-24T03:06:43.845Z,14.23
2023-03-24T03:09:15.338Z,12.30
2023-03-24T03:11:47.647Z,12.80
2023-03-24T03:17:08.061Z,12.25
2023-03-24T03:19:40.722Z,12.07
2023-03-24T03:22:15.885Z,13.88
2023-03-24T03:24:50.446Z,13.63
2023-03-24T03:27:22.862Z,11.75
2023-03-24T03:32:28.487Z,13.50
2023-03-24T03:35:00.005Z,13.50
2023-03-24T03:37:35.152Z,13.70
2023-03-24T03:40:12.286Z,14.93
2023-03-24T03:42:40.211Z,12.77
2023-03-24T03:45:11.354Z,13.85
2023-03-24T03:47:38.307Z,13.23
2023-03-24T03:50:07.614Z,12.77
2023-03-24T03:52:35.683Z,13.82
2023-03-24T03:55:03.874Z,13.70
2023-03-24T03:57:30.987Z,13.55
2023-03-24T03:59:58.947Z,14.10
2023-03-24T04:02:37.089Z,13.90
2023-03-24T04:05:26.236Z,15.90
2023-03-24T04:08:08.469Z,15.68
2023-03-24T04:10:44.341Z,14.95
2023-03-24T04:13:41.793Z,15.93
2023-03-24T04:16:12.384Z,14.23
2023-03-24T04:19:00.472Z,14.50
2023-03-24T04:21:55.291Z,14.23
2023-03-24T04:25:16.164Z,16.65
2023-03-24T04:27:46.654Z,13.82
2023-03-24T04:30:23.949Z,15.05
2023-03-24T04:33:05.564Z,16.05
2023-03-24T04:35:47.012Z,14.95
2023-03-24T04:38:23.198Z,17.23
2023-03-24T04:40:52.173Z,17.42
2023-03-24T04:43:25.211Z,16.88
2023-03-24T04:45:58.072Z,14.68
2023-03-24T04:48:26.270Z,13.98
2023-03-24T04:51:00.247Z,14.63
2023-03-24T04:53:27.950Z,16.65
2023-03-24T04:56:04.923Z,15.43
2023-03-24T04:58:33.176Z,15.82
2023-03-24T05:00:59.934Z,17.05
2023-03-24T05:03:26.931Z,15.38
2023-03-24T05:05:53.673Z,16.52
2023-03-24T05:08:20.956Z,17.70
2023-03-24T05:10:48.300Z,17.40
2023-03-24T05:13:15.925Z,18.23
2023-03-24T05:15:43.065Z,26.92
2023-03-24T05:18:09.975Z,29.77
2023-03-24T05:20:36.712Z,26.42
2023-03-24T05:23:03.522Z,24.33
2023-03-24T05:25:30.380Z,20.60
2023-03-24T05:27:57.022Z,18.23
2023-03-24T05:30:23.859Z,15.93
2023-03-24T05:32:50.836Z,14.35
2023-03-24T05:35:17.571Z,14.70
2023-03-24T05:37:44.543Z,12.15
2023-03-24T05:40:11.974Z,15.13
2023-03-24T05:42:38.603Z,13.98
2023-03-24T05:45:06.527Z,13.07
2023-03-24T05:47:33.244Z,13.07
2023-03-24T05:50:01.255Z,13.52
2023-03-24T05:52:29.066Z,13.95
2023-03-24T05:54:55.918Z,14.68
2023-03-24T05:57:22.954Z,14.13
2023-03-24T05:59:50.061Z,13.38
2023-03-24T06:02:16.739Z,13.20
2023-03-24T06:04:49.079Z,12.45
2023-03-24T06:07:16.803Z,12.95
2023-03-24T06:09:47.126Z,13.75
2023-03-24T06:12:16.279Z,14.45
2023-03-24T06:14:43.169Z,15.18
2023-03-24T06:17:14.880Z,14.50
2023-03-24T06:19:49.956Z,12.40
2023-03-24T06:22:20.891Z,13.60
2023-03-24T06:24:47.908Z,14.32
2023-03-24T06:27:14.704Z,12.95
2023-03-24T06:29:44.837Z,13.50
2023-03-24T06:32:11.773Z,12.63
2023-03-24T06:34:40.587Z,12.50
2023-03-24T06:37:07.355Z,15.07
2023-03-24T06:39:33.988Z,13.93
2023-03-24T06:42:00.649Z,15.73
2023-03-24T06:44:27.441Z,15.10
2023-03-24T06:46:54.238Z,13.38
2023-03-24T06:49:21.000Z,14.02
2023-03-24T06:51:47.645Z,14.45
2023-03-24T06:54:14.277Z,14.55
2023-03-24T06:56:41.807Z,14.57
2023-03-24T06:59:09.079Z,13.95
2023-03-24T07:01:36.494Z,14.55
2023-03-24T07:04:03.769Z,15.27
2023-03-24T07:06:31.022Z,14.13
2023-03-24T07:08:58.293Z,11.65
2023-03-24T07:11:25.237Z,13.55
2023-03-24T07:13:51.961Z,13.80
2023-03-24T07:16:18.759Z,10.95
2023-03-24T07:18:45.462Z,11.73
2023-03-24T07:21:12.253Z,11.40
2023-03-24T07:23:38.947Z,11.70
2023-03-24T07:26:06.333Z,11.32
2023-03-24T07:28:33.054Z,11.65
2023-03-24T07:31:03.653Z,14.00
2023-03-24T07:33:31.756Z,12.38
2023-03-24T07:35:59.686Z,12.32
2023-03-24T07:38:26.941Z,12.27
2023-03-24T07:40:54.014Z,12.18
2023-03-24T07:43:21.943Z,11.15
2023-03-24T07:45:48.998Z,11.60
2023-03-24T07:48:16.126Z,11.20
2023-03-24T07:50:43.043Z,13.60
2023-03-24T07:53:09.884Z,15.48
2023-03-24T07:55:38.659Z,12.05
2023-03-24T07:58:05.858Z,14.07
2023-03-24T08:00:33.800Z,17.80
2023-03-24T08:03:01.068Z,14.60
2023-03-24T08:05:30.157Z,14.07
2023-03-24T08:07:58.856Z,13.55
2023-03-24T08:10:30.139Z,13.43
2023-03-24T08:12:57.752Z,13.52
2023-03-24T08:15:25.177Z,12.48
2023-03-24T08:17:52.537Z,12.98
2023-03-24T08:20:21.421Z,13.93
2023-03-24T08:22:49.981Z,12.23
2023-03-24T08:25:19.193Z,12.25
2023-03-24T08:27:47.445Z,13.05
2023-03-24T08:30:17.112Z,10.93
2023-03-24T08:32:49.038Z,8.75
2023-03-24T08:35:18.829Z,10.60
2023-03-24T08:37:45.791Z,12.52
2023-03-24T08:40:19.339Z,12.90
2023-03-24T08:42:54.937Z,11.77
2023-03-24T08:45:24.157Z,12.85
2023-03-24T08:47:52.337Z,11.10
2023-03-24T08:50:21.718Z,11.07
2023-03-24T08:52:48.731Z,12.98
2023-03-24T08:55:16.660Z,10.77
2023-03-24T08:57:43.673Z,11.38
2023-03-24T09:00:15.338Z,10.05
2023-03-24T09:02:47.216Z,10.10
2023-03-24T09:05:15.673Z,11.80
2023-03-24T09:07:44.418Z,9.35
2023-03-24T09:10:11.691Z,10.98
2023-03-24T09:12:39.326Z,12.43
2023-03-24T09:15:11.769Z,11.55
2023-03-24T09:17:40.492Z,10.35
2023-03-24T09:20:13.046Z,10.68
2023-03-24T09:22:44.120Z,10.73
2023-03-24T09:25:13.796Z,11.10
2023-03-24T09:27:41.064Z,12.13
2023-03-24T09:30:09.589Z,11.70
2023-03-24T09:32:36.668Z,10.90
2023-03-24T09:35:03.837Z,11.70
2023-03-24T09:37:32.042Z,10.00
2023-03-24T09:40:00.221Z,10.35
2023-03-24T09:42:30.482Z,10.63
2023-03-24T09:44:59.224Z,10.52
2023-03-24T09:47:42.158Z,10.45
2023-03-24T09:50:25.093Z,10.65
2023-03-24T09:53:04.759Z,9.95
2023-03-24T09:55:31.468Z,9.35
2023-03-24T09:58:05.254Z,9.15
2023-03-24T10:00:33.520Z,10.32
2023-03-24T10:03:19.849Z,10.07
2023-03-24T10:06:18.440Z,9.02
2023-03-24T10:08:54.356Z,8.82
2023-03-24T10:11:36.497Z,9.65
2023-03-24T10:14:24.459Z,6.13
2023-03-24T10:17:17.498Z,8.15
2023-03-24T10:20:02.700Z,7.88
2023-03-24T10:22:38.565Z,7.95
2023-03-24T10:25:35.493Z,6.35
2023-03-24T10:28:30.671Z,6.13
2023-03-24T10:31:02.997Z,7.35
2023-03-24T10:33:31.949Z,6.25
2023-03-24T10:36:11.477Z,6.25
2023-03-24T10:38:39.007Z,4.68
2023-03-24T10:41:07.470Z,5.18
2023-03-24T10:43:34.690Z,4.90
2023-03-24T10:46:02.733Z,5.90
2023-03-24T10:48:43.316Z,4.45
2023-03-24T10:51:19.610Z,4.50
2023-03-24T10:53:48.780Z,4.25
2023-03-24T10:56:38.772Z,4.35
2023-03-24T10:59:18.795Z,4.68
2023-03-24T11:01:46.672Z,4.32
2023-03-24T11:04:19.955Z,4.07
2023-03-24T11:07:02.460Z,3.90
2023-03-24T11:09:30.179Z,2.90
2023-03-24T11:12:02.690Z,3.38
2023-03-24T11:14:31.438Z,3.08
2023-03-24T11:17:16.441Z,2.75
2023-03-24T11:19:57.688Z,2.60
2023-03-24T11:22:25.927Z,2.30
2023-03-24T11:24:56.948Z,2.50
2023-03-24T11:27:23.989Z,2.77
2023-03-24T11:29:55.152Z,2.63
2023-03-24T11:32:28.140Z,3.00
2023-03-24T11:35:06.125Z,1.90
2023-03-24T11:37:36.144Z,2.30
2023-03-24T11:40:18.772Z,1.92
2023-03-24T11:42:51.317Z,1.20
2023-03-24T11:45:23.395Z,2.25
2023-03-24T11:47:54.794Z,2.45
2023-03-24T11:50:30.643Z,1.80
2023-03-24T11:53:08.231Z,2.00
2023-03-24T11:55:58.561Z,1.58
2023-03-24T11:58:33.327Z,1.52
2023-03-24T12:01:22.344Z,1.20
2023-03-24T12:03:59.484Z,1.75
2023-03-24T12:07:08.184Z,1.63
2023-03-24T12:09:55.080Z,1.55
2023-03-24T12:12:38.841Z,1.40
2023-03-24T12:15:47.356Z,1.38
2023-03-24T12:18:56.144Z,1.40
2023-03-24T12:21:41.568Z,2.20
2023-03-24T12:24:26.419Z,2.05
2023-03-24T12:26:58.294Z,1.80
2023-03-24T12:32:16.224Z,2.00
2023-03-24T12:35:18.906Z,1.85
2023-03-24T12:38:17.426Z,1.65
2023-03-24T12:41:17.302Z,1.70
2023-03-24T12:43:46.864Z,1.85
2023-03-24T12:46:40.685Z,1.92
2023-03-24T12:49:27.070Z,1.83
2023-03-24T12:52:25.424Z,2.42
2023-03-24T12:55:05.258Z,2.47
2023-03-24T12:57:41.233Z,1.77
2023-03-24T13:00:16.177Z,2.10
2023-03-24T13:02:53.670Z,1.80
2023-03-24T13:05:38.462Z,1.40
2023-03-24T13:08:29.365Z,1.40
2023-03-24T13:11:07.972Z,1.98
2023-03-24T13:13:43.794Z,1.90
2023-03-24T13:16:20.033Z,1.88
2023-03-24T13:18:53.085Z,2.00
2023-03-24T13:21:22.559Z,1.98
2023-03-24T13:24:13.606Z,2.20
2023-03-24T13:27:05.738Z,1.70
2023-03-24T13:29:41.991Z,1.60
2023-03-24T13:32:22.554Z,2.05
2023-03-24T13:35:19.155Z,2.00
2023-03-24T13:37:51.109Z,2.13
2023-03-24T13:43:17.244Z,1.70
2023-03-24T13:45:53.442Z,1.35
2023-03-24T13:48:35.968Z,2.03
2023-03-24T13:51:21.372Z,1.45
2023-03-24T13:54:09.658Z,1.75
2023-03-24T13:56:42.349Z,1.92
2023-03-24T13:59:25.269Z,1.98
2023-03-24T14:02:21.098Z,2.50
2023-03-24T14:04:55.284Z,2.35
2023-03-24T14:07:43.831Z,2.22
2023-03-24T14:10:16.990Z,3.47
2023-03-24T14:12:53.764Z,1.60
2023-03-24T14:15:36.121Z,1.45
2023-03-24T14:18:24.624Z,2.40
2023-03-24T14:20:57.877Z,2.00
2023-03-24T14:23:32.128Z,1.52
2023-03-24T14:25:59.221Z,2.00
2023-03-24T14:28:32.931Z,1.27
2023-03-24T14:31:10.256Z,1.80
2023-03-24T14:33:38.245Z,4.97
2023-03-24T14:36:06.994Z,1.90
2023-03-24T14:38:38.054Z,1.30
2023-03-24T14:41:29.747Z,1.30
2023-03-24T14:43:59.496Z,1.70
2023-03-24T14:46:43.006Z,1.73
2023-03-24T14:49:12.874Z,1.52
2023-03-24T14:52:06.224Z,1.58
2023-03-24T14:54:39.695Z,1.67
2023-03-24T14:57:09.202Z,1.40
2023-03-24T15:00:01.110Z,1.70
2023-03-24T15:02:39.805Z,1.77
2023-03-24T15:05:23.180Z,1.90
2023-03-24T15:08:08.669Z,1.75
2023-03-24T15:10:43.554Z,1.73
2023-03-24T15:13:30.414Z,1.92
2023-03-24T15:15:57.988Z,1.80
2023-03-24T15:18:28.329Z,2.13
2023-03-24T15:20:55.660Z,2.38
2023-03-24T15:23:31.351Z,2.10
2023-03-24T15:25:58.230Z,2.88
2023-03-24T15:28:28.604Z,2.17
2023-03-24T15:31:01.580Z,1.77
2023-03-24T15:33:31.378Z,1.58
2023-03-24T15:35:59.947Z,6.45
2023-03-24T15:38:33.786Z,1.60
2023-03-24T15:41:07.859Z,1.83
2023-03-24T15:43:43.796Z,1.83
2023-03-24T15:46:27.477Z,1.58
2023-03-24T15:48:56.380Z,1.83
2023-03-24T15:51:49.715Z,2.50
2023-03-24T15:54:23.245Z,2.67
2023-03-24T15:57:23.677Z,2.67
2023-03-24T15:59:57.027Z,2.63
2023-03-24T16:02:42.469Z,2.47
2023-03-24T16:05:28.920Z,1.67
2023-03-24T16:07:59.949Z,1.77
2023-03-24T16:10:40.024Z,2.30
2023-03-24T16:13:17.953Z,2.33
2023-03-24T16:15:48.453Z,2.30
2023-03-24T16:18:19.935Z,3.15
2023-03-24T16:20:47.042Z,2.35
2023-03-24T16:23:13.893Z,3.03
2023-03-24T16:25:41.571Z,5.35
2023-03-24T16:28:15.399Z,3.10
2023-03-24T16:30:47.419Z,3.85
2023-03-24T16:33:15.368Z,3.58
2023-03-24T16:35:42.359Z,3.50
2023-03-24T16:38:13.286Z,3.90
2023-03-24T16:40:51.491Z,3.67
2023-03-24T16:43:25.496Z,4.00
2023-03-24T16:45:52.398Z,4.10
2023-03-24T16:48:19.248Z,5.10
2023-03-24T16:50:51.871Z,4.20
2023-03-24T16:53:19.677Z,4.93
2023-03-24T16:55:47.814Z,5.40
2023-03-24T16:58:18.281Z,5.80
2023-03-24T17:00:46.051Z,5.35
2023-03-24T17:03:14.219Z,4.03
2023-03-24T17:05:51.436Z,5.10
2023-03-24T17:08:20.259Z,3.67
2023-03-24T17:10:51.569Z,3.90
2023-03-24T17:13:21.394Z,3.88
2023-03-24T17:15:48.604Z,4.00
2023-03-24T17:18:16.504Z,4.78
2023-03-24T17:20:43.929Z,5.18
2023-03-24T17:23:13.765Z,6.43
2023-03-24T17:25:41.122Z,7.28
2023-03-24T17:28:17.898Z,8.23
2023-03-24T17:30:45.187Z,6.68
2023-03-24T17:33:13.856Z,7.30
2023-03-24T17:35:40.695Z,7.15
2023-03-24T17:38:07.648Z,7.85
2023-03-24T17:40:34.565Z,9.20
2023-03-24T17:43:01.395Z,8.82
2023-03-24T17:45:28.202Z,8.35
2023-03-24T17:47:55.606Z,10.77
2023-03-24T17:50:22.436Z,12.95
2023-03-24T17:52:49.924Z,11.18
2023-03-24T17:55:17.875Z,10.95
2023-03-24T17:57:45.277Z,8.75
2023-03-24T18:00:15.022Z,6.78
2023-03-24T18:02:44.087Z,6.53
2023-03-24T18:05:12.679Z,5.18
2023-03-24T18:07:40.354Z,5.15
2023-03-24T18:10:08.423Z,4.15
2023-03-24T18:12:37.045Z,5.07
2023-03-24T18:15:05.482Z,5.70
2023-03-24T18:17:33.237Z,4.78
2023-03-24T18:20:10.396Z,5.13
2023-03-24T18:25:10.481Z,6.13
2023-03-24T18:27:37.875Z,6.30
2023-03-24T18:30:06.528Z,6.80
2023-03-24T18:32:34.071Z,6.18
2023-03-24T18:35:00.968Z,5.47
2023-03-24T18:37:28.892Z,6.28
2023-03-24T18:39:55.571Z,5.55
2023-03-24T18:42:22.373Z,4.88
2023-03-24T18:44:49.074Z,4.97
2023-03-24T18:47:16.550Z,4.00
2023-03-24T18:49:43.461Z,4.72
2023-03-24T18:52:10.268Z,4.25
2023-03-24T18:54:36.952Z,4.22
2023-03-24T18:57:03.731Z,4.60
2023-03-24T18:59:31.854Z,4.13
2023-03-24T19:02:00.282Z,4.50
2023-03-24T19:04:27.440Z,5.03
2023-03-24T19:06:54.444Z,4.55
2023-03-24T19:09:22.944Z,5.40
2023-03-24T19:11:50.086Z,5.43
2023-03-24T19:14:16.725Z,5.57
2023-03-24T19:16:43.469Z,6.20
2023-03-24T19:19:10.208Z,5.97
2023-03-24T19:21:36.843Z,5.43
2023-03-24T19:24:03.576Z,5.85
2023-03-24T19:26:30.410Z,6.20
2023-03-24T19:29:00.049Z,5.55
2023-03-24T19:31:26.656Z,5.50
2023-03-24T19:33:53.739Z,7.15
2023-03-24T19:36:20.493Z,6.00
2023-03-24T19:38:47.219Z,5.78
2023-03-24T19:41:15.553Z,5.85
2023-03-24T19:43:42.932Z,5.88
2023-03-24T19:46:09.790Z,6.35
2023-03-24T19:48:36.935Z,5.97
2023-03-24T19:51:04.295Z,7.35
2023-03-24T19:53:31.296Z,6.05
2023-03-24T19:55:58.896Z,6.38
2023-03-24T19:58:25.829Z,5.88
2023-03-24T20:00:53.403Z,6.07
2023-03-24T20:03:20.533Z,6.35
2023-03-24T20:05:48.013Z,6.47
2023-03-24T20:08:15.492Z,6.75
2023-03-24T20:10:42.194Z,6.03
2023-03-24T20:13:10.078Z,7.65
2023-03-24T20:15:37.140Z,6.03
2023-03-24T20:18:04.054Z,7.47
2023-03-24T20:20:30.767Z,7.68
2023-03-24T20:22:57.478Z,6.25
2023-03-24T20:25:24.255Z,5.80
2023-03-24T20:27:51.086Z,5.97
2023-03-24T20:30:20.287Z,5.22
2023-03-24T20:32:47.295Z,6.22
2023-03-24T20:35:14.165Z,5.70
2023-03-24T20:37:41.043Z,6.30
2023-03-24T20:40:09.707Z,5.53
2023-03-24T20:42:37.396Z,6.05
2023-03-24T20:45:06.091Z,5.97
2023-03-24T20:47:33.030Z,5.85
2023-03-24T20:49:59.785Z,5.18
2023-03-24T20:52:27.309Z,7.05
2023-03-24T20:54:54.282Z,6.30
2023-03-24T20:57:21.115Z,6.32
2023-03-24T20:59:48.783Z,6.15
2023-03-24T21:02:16.008Z,6.30
2023-03-24T21:04:43.437Z,6.35
2023-03-24T21:07:10.117Z,6.43
2023-03-24T21:09:37.214Z,6.40
2023-03-24T21:12:06.709Z,5.97
2023-03-24T21:14:33.789Z,7.82
2023-03-24T21:17:01.614Z,6.90
2023-03-24T21:19:29.102Z,6.13
2023-03-24T21:21:56.241Z,7.00
2023-03-24T21:24:24.444Z,6.57
2023-03-24T21:26:53.882Z,6.85
2023-03-24T21:29:22.653Z,8.15
2023-03-24T21:31:49.936Z,7.88
2023-03-24T21:34:16.778Z,8.90
2023-03-24T21:36:43.427Z,9.30
2023-03-24T21:39:12.174Z,11.35
2023-03-24T21:41:39.438Z,8.75
2023-03-24T21:44:09.410Z,9.32
2023-03-24T21:46:37.127Z,10.02
2023-03-24T21:49:05.220Z,10.02
2023-03-24T21:51:34.460Z,10.15
2023-03-24T21:54:04.646Z,10.85
2023-03-24T21:56:33.261Z,9.70
2023-03-24T21:59:00.499Z,10.93
2023-03-24T22:01:27.559Z,11.55
2023-03-24T22:03:54.774Z,12.07
2023-03-24T22:06:22.805Z,11.38
2023-03-24T22:08:49.991Z,11.43
2023-03-24T22:11:18.866Z,10.05
2023-03-24T22:13:46.586Z,10.48
2023-03-24T22:16:14.154Z,12.15
2023-03-24T22:18:41.048Z,13.43
2023-03-24T22:21:09.467Z,10.35
2023-03-24T22:23:39.602Z,10.68
2023-03-24T22:26:09.573Z,11.50
2023-03-24T22:28:36.742Z,12.23
2023-03-24T22:31:08.623Z,10.10
2023-03-24T22:33:35.846Z,11.45
2023-03-24T22:36:03.538Z,9.30
2023-03-24T22:38:31.233Z,9.52
2023-03-24T22:41:03.050Z,9.63
2023-03-24T22:43:30.779Z,9.32
2023-03-24T22:45:57.686Z,10.00
2023-03-24T22:48:24.592Z,9.20
2023-03-24T22:50:52.352Z,9.68
2023-03-24T22:53:19.116Z,9.68
2023-03-24T22:55:45.926Z,9.25
2023-03-24T22:58:13.924Z,9.13
2023-03-24T23:00:42.392Z,9.30
2023-03-24T23:03:10.018Z,9.27
2023-03-24T23:05:45.728Z,9.77
2023-03-24T23:08:15.324Z,9.20
2023-03-24T23:10:47.824Z,9.93
2023-03-24T23:13:17.150Z,9.85
2023-03-24T23:15:44.271Z,9.32
2023-03-24T23:18:11.918Z,10.38
2023-03-24T23:20:38.632Z,8.82
2023-03-24T23:23:07.074Z,9.45
2023-03-24T23:25:39.116Z,9.52
2023-03-24T23:28:05.898Z,9.02
2023-03-24T23:30:32.876Z,9.40
2023-03-24T23:32:59.771Z,9.02
2023-03-24T23:35:26.620Z,8.73
2023-03-24T23:37:53.535Z,8.70
2023-03-24T23:40:20.321Z,8.98
2023-03-24T23:42:48.677Z,8.85
2023-03-24T23:45:20.492Z,9.40
2023-03-24T23:47:50.409Z,8.35
2023-03-24T23:50:18.643Z,8.20
2023-03-24T23:52:45.690Z,9.13
2023-03-24T23:55:17.683Z,8.48
2023-03-24T23:57:45.519Z,9.05
